createdAt,value
2017-11-10T00:01:25.805Z,9.90
2017-11-10T00:03:53.338Z,9.90
2017-11-10T00:06:21.606Z,9.90
2017-11-10T00:08:49.141Z,9.90
2017-11-10T00:11:16.646Z,9.90
2017-11-10T00:13:45.092Z,9.90
2017-11-10T00:16:12.608Z,9.90
2017-11-10T00:18:40.115Z,9.90
2017-11-10T00:21:08.456Z,9.90
2017-11-10T00:23:35.977Z,9.90
2017-11-10T00:26:04.298Z,9.90
2017-11-10T00:28:31.815Z,9.90
2017-11-10T00:31:00.101Z,9.90
2017-11-10T00:33:27.843Z,9.90
2017-11-10T00:35:56.145Z,9.90
2017-11-10T00:38:23.661Z,9.90
2017-11-10T00:40:51.192Z,9.80
2017-11-10T00:43:18.693Z,9.80
2017-11-10T00:45:46.211Z,9.80
2017-11-10T00:48:13.720Z,9.80
2017-11-10T00:50:42.002Z,9.80
2017-11-10T00:53:10.274Z,9.80
2017-11-10T00:55:38.572Z,9.80
2017-11-10T00:58:06.090Z,9.80
2017-11-10T01:00:33.623Z,9.80
2017-11-10T01:03:01.141Z,9.80
2017-11-10T01:05:28.672Z,9.80
2017-11-10T01:07:56.176Z,9.80
2017-11-10T01:10:23.705Z,9.80
2017-11-10T01:12:51.979Z,9.80
2017-11-10T01:15:20.260Z,9.80
2017-11-10T01:17:48.531Z,9.80
2017-11-10T01:20:16.823Z,9.80
2017-11-10T01:22:45.096Z,9.70
2017-11-10T01:25:13.380Z,9.70
2017-11-10T01:27:40.897Z,9.70
2017-11-10T01:30:08.433Z,9.70
2017-11-10T01:32:35.935Z,9.70
2017-11-10T01:35:04.623Z,9.70
2017-11-10T01:37:32.896Z,9.70
2017-11-10T01:40:01.185Z,9.70
2017-11-10T01:42:29.487Z,9.70
2017-11-10T01:44:56.992Z,9.70
2017-11-10T01:47:24.528Z,9.70
2017-11-10T01:49:53.809Z,9.60
2017-11-10T01:52:21.340Z,9.60
2017-11-10T01:54:49.622Z,9.60
2017-11-10T01:57:17.928Z,9.60
2017-11-10T01:59:45.428Z,9.60
2017-11-10T02:02:12.964Z,9.70
2017-11-10T02:04:40.471Z,9.60
2017-11-10T02:07:08.012Z,9.60
2017-11-10T02:09:35.511Z,9.60
2017-11-10T02:12:03.815Z,9.60
2017-11-10T02:14:32.257Z,9.60
2017-11-10T02:17:00.554Z,9.60
2017-11-10T02:19:28.060Z,9.60
2017-11-10T02:21:55.583Z,9.60
2017-11-10T02:24:23.084Z,9.60
2017-11-10T02:26:50.617Z,9.60
2017-11-10T02:29:21.094Z,9.60
2017-11-10T02:31:49.383Z,9.60
2017-11-10T02:34:16.908Z,9.60
2017-11-10T02:36:44.429Z,9.60
2017-11-10T02:39:11.938Z,9.60
2017-11-10T02:41:39.459Z,9.60
2017-11-10T02:44:07.010Z,9.60
2017-11-10T02:46:34.543Z,9.60
2017-11-10T02:49:02.059Z,9.60
2017-11-10T02:51:29.575Z,9.60
2017-11-10T02:53:57.080Z,9.60
2017-11-10T02:56:24.609Z,9.60
2017-11-10T02:58:52.136Z,9.60
2017-11-10T03:01:19.654Z,9.60
2017-11-10T03:03:47.155Z,9.50
2017-11-10T03:06:14.693Z,9.60
2017-11-10T03:08:42.960Z,9.50
2017-11-10T03:11:10.481Z,9.50
2017-11-10T03:13:37.987Z,9.50
2017-11-10T03:16:06.276Z,9.50
2017-11-10T03:18:34.543Z,9.50
2017-11-10T03:21:02.848Z,9.50
2017-11-10T03:23:30.351Z,9.50
2017-11-10T03:25:57.875Z,9.50
2017-11-10T03:28:25.394Z,9.50
2017-11-10T03:30:53.684Z,9.50
2017-11-10T03:33:21.196Z,9.50
2017-11-10T03:35:48.725Z,9.50
2017-11-10T03:38:16.228Z,9.50
2017-11-10T03:40:43.748Z,9.50
2017-11-10T03:43:11.248Z,9.50
2017-11-10T03:45:38.768Z,9.50
2017-11-10T03:48:07.219Z,9.50
2017-11-10T03:50:35.492Z,9.50
2017-11-10T03:53:03.775Z,9.50
2017-11-10T03:55:31.282Z,9.50
2017-11-10T03:57:58.816Z,9.50
2017-11-10T04:00:26.321Z,9.50
2017-11-10T04:02:53.840Z,9.50
2017-11-10T04:05:21.344Z,9.50
2017-11-10T04:07:48.876Z,9.50
2017-11-10T04:10:16.391Z,9.50
2017-11-10T04:12:43.912Z,9.50
2017-11-10T04:15:11.418Z,9.40
2017-11-10T04:17:38.942Z,9.40
2017-11-10T04:20:07.222Z,9.40
2017-11-10T04:22:35.526Z,9.40
2017-11-10T04:25:03.028Z,9.40
2017-11-10T04:27:30.552Z,9.40
2017-11-10T04:29:58.058Z,9.40
2017-11-10T04:32:25.578Z,9.40
2017-11-10T04:34:53.103Z,9.40
2017-11-10T04:37:20.640Z,9.40
2017-11-10T04:39:48.148Z,9.40
2017-11-10T04:42:15.676Z,9.40
2017-11-10T04:44:43.951Z,9.40
2017-11-10T04:47:12.252Z,9.40
2017-11-10T04:49:39.755Z,9.40
2017-11-10T04:52:07.273Z,9.40
2017-11-10T04:54:34.786Z,9.40
2017-11-10T04:57:02.313Z,9.40
2017-11-10T04:59:29.835Z,9.40
2017-11-10T05:01:58.141Z,9.40
2017-11-10T05:04:25.657Z,9.40
2017-11-10T05:06:53.184Z,9.40
2017-11-10T05:09:20.692Z,9.40
2017-11-10T05:11:48.984Z,9.40
2017-11-10T05:14:16.491Z,9.40
2017-11-10T05:16:44.485Z,9.40
2017-11-10T05:19:12.769Z,9.40
2017-11-10T05:21:41.292Z,9.40
2017-11-10T05:24:08.818Z,9.40
2017-11-10T05:26:36.339Z,9.40
2017-11-10T05:29:03.860Z,9.40
2017-11-10T05:31:32.149Z,9.40
2017-11-10T05:33:59.659Z,9.30
2017-11-10T05:36:27.179Z,9.40
2017-11-10T05:38:54.696Z,9.40
2017-11-10T05:41:22.552Z,9.40
2017-11-10T05:43:50.830Z,9.40
2017-11-10T05:46:19.129Z,9.30
2017-11-10T05:48:46.660Z,9.30
2017-11-10T05:51:14.945Z,9.30
2017-11-10T05:53:43.216Z,9.30
2017-11-10T05:56:11.520Z,9.30
2017-11-10T05:58:39.036Z,9.30
2017-11-10T06:01:06.568Z,9.30
2017-11-10T06:03:34.084Z,9.30
2017-11-10T06:06:01.615Z,9.20
2017-11-10T06:08:29.892Z,9.20
2017-11-10T06:10:57.442Z,9.20
2017-11-10T06:13:24.954Z,9.20
2017-11-10T06:15:52.472Z,9.20
2017-11-10T06:18:20.770Z,9.20
2017-11-10T06:20:49.050Z,9.20
2017-11-10T06:23:16.580Z,9.20
2017-11-10T06:25:44.089Z,9.20
2017-11-10T06:28:11.620Z,9.20
2017-11-10T06:30:39.919Z,9.30
2017-11-10T06:33:07.447Z,9.20
2017-11-10T06:35:35.716Z,9.30
2017-11-10T06:38:03.258Z,9.20
2017-11-10T06:40:30.769Z,9.30
2017-11-10T06:42:58.274Z,9.30
2017-11-10T06:45:25.821Z,9.30
2017-11-10T06:47:53.722Z,9.30
2017-11-10T06:50:21.258Z,9.30
2017-11-10T06:52:48.780Z,9.30
2017-11-10T06:55:16.319Z,9.30
2017-11-10T06:57:43.838Z,9.30
2017-11-10T07:00:11.369Z,9.30
2017-11-10T07:02:38.893Z,9.30
2017-11-10T07:05:06.459Z,9.30
2017-11-10T07:07:34.747Z,9.30
2017-11-10T07:10:02.303Z,9.30
2017-11-10T07:12:29.823Z,9.40
2017-11-10T07:14:57.325Z,9.40
2017-11-10T07:17:24.859Z,9.40
2017-11-10T07:19:53.138Z,9.40
2017-11-10T07:22:21.423Z,9.40
2017-11-10T07:24:49.708Z,9.40
2017-11-10T07:27:17.235Z,9.40
2017-11-10T07:29:44.738Z,9.40
2017-11-10T07:32:12.288Z,9.40
2017-11-10T07:34:39.788Z,9.40
2017-11-10T07:37:07.304Z,9.40
2017-11-10T07:39:34.858Z,9.50
2017-11-10T07:42:02.369Z,9.50
2017-11-10T07:44:29.891Z,9.50
2017-11-10T07:47:05.045Z,9.50
2017-11-10T07:49:32.575Z,9.50
2017-11-10T07:52:00.083Z,9.50
2017-11-10T07:54:27.624Z,9.50
2017-11-10T07:56:55.151Z,9.50
2017-11-10T07:59:22.688Z,9.50
2017-11-10T08:01:50.192Z,9.50
2017-11-10T08:04:17.736Z,9.50
2017-11-10T08:06:45.252Z,9.50
2017-11-10T08:09:12.757Z,9.50
2017-11-10T08:11:40.287Z,9.50
2017-11-10T08:14:07.803Z,9.50
2017-11-10T08:16:35.333Z,9.60
2017-11-10T08:19:02.844Z,9.60
2017-11-10T08:21:30.376Z,9.60
2017-11-10T08:23:57.888Z,9.60
2017-11-10T08:26:26.195Z,9.70
2017-11-10T08:28:53.730Z,9.60
2017-11-10T08:31:21.259Z,9.70
2017-11-10T08:33:48.768Z,9.70
2017-11-10T08:36:16.302Z,9.70
2017-11-10T08:38:44.579Z,9.80
2017-11-10T08:41:12.899Z,9.80
2017-11-10T08:43:40.414Z,9.80
2017-11-10T08:46:08.682Z,9.90
2017-11-10T08:48:36.980Z,9.90
2017-11-10T08:51:05.256Z,10.00
2017-11-10T08:53:33.540Z,10.00
2017-11-10T08:56:01.051Z,9.90
2017-11-10T08:58:28.584Z,10.00
2017-11-10T09:00:56.861Z,10.00
2017-11-10T09:03:24.392Z,10.00
2017-11-10T09:05:51.905Z,10.10
2017-11-10T09:08:19.436Z,10.10
2017-11-10T09:10:46.950Z,10.10
2017-11-10T09:13:15.244Z,10.20
2017-11-10T09:15:43.532Z,10.20
2017-11-10T09:18:11.062Z,10.20
2017-11-10T09:20:38.572Z,10.20
2017-11-10T09:23:06.107Z,10.20
2017-11-10T09:25:33.634Z,10.30
2017-11-10T09:28:02.564Z,10.30
2017-11-10T09:30:48.783Z,10.30
2017-11-10T09:33:32.708Z,10.30
2017-11-10T09:36:04.716Z,10.40
2017-11-10T09:41:42.548Z,10.40
2017-11-10T09:44:30.097Z,10.50
2017-11-10T09:47:04.053Z,10.50
2017-11-10T09:49:37.115Z,10.50
2017-11-10T09:52:10.216Z,10.50
2017-11-10T09:57:52.716Z,10.60
2017-11-10T10:00:36.926Z,10.70
2017-11-10T10:03:10.135Z,10.60
2017-11-10T10:08:54.850Z,10.70
2017-11-10T10:11:43.146Z,10.70
2017-11-10T10:17:33.055Z,10.80
2017-11-10T10:20:17.306Z,10.80
2017-11-10T10:22:50.528Z,10.80
2017-11-10T10:25:18.194Z,10.80
2017-11-10T10:27:45.860Z,10.90
2017-11-10T10:30:13.417Z,10.90
2017-11-10T10:32:40.993Z,10.90
2017-11-10T10:35:08.664Z,10.90
2017-11-10T10:37:36.223Z,10.90
2017-11-10T10:40:03.753Z,11.00
2017-11-10T10:42:31.345Z,11.00
2017-11-10T10:44:58.902Z,11.00
2017-11-10T10:47:26.437Z,11.00
2017-11-10T10:49:53.994Z,11.00
2017-11-10T10:52:21.526Z,11.10
2017-11-10T10:54:49.083Z,11.10
2017-11-10T10:57:16.621Z,11.10
2017-11-10T10:59:44.177Z,11.10
2017-11-10T11:02:11.721Z,11.10
2017-11-10T11:04:39.265Z,11.10
2017-11-10T11:07:06.794Z,11.10
2017-11-10T11:09:34.351Z,11.10
2017-11-10T11:12:01.884Z,11.10
2017-11-10T11:14:30.202Z,11.10
2017-11-10T11:16:57.746Z,11.10
2017-11-10T11:19:25.297Z,11.10
2017-11-10T11:21:53.625Z,11.10
2017-11-10T11:24:21.184Z,11.00
2017-11-10T11:26:48.712Z,11.00
2017-11-10T11:29:16.262Z,11.00
2017-11-10T11:31:43.818Z,11.00
2017-11-10T11:34:12.100Z,11.00
2017-11-10T11:36:39.650Z,11.00
2017-11-10T11:39:07.937Z,11.00
2017-11-10T11:41:35.482Z,11.00
2017-11-10T11:44:03.802Z,10.90
2017-11-10T11:46:31.363Z,10.90
2017-11-10T11:48:58.887Z,10.90
2017-11-10T11:51:27.221Z,10.90
2017-11-10T11:53:54.764Z,10.80
2017-11-10T11:56:22.318Z,10.80
2017-11-10T11:58:49.874Z,10.80
2017-11-10T12:01:17.417Z,10.80
2017-11-10T12:03:45.705Z,10.80
2017-11-10T12:06:13.272Z,10.80
2017-11-10T12:08:40.798Z,10.80
2017-11-10T12:11:09.106Z,10.90
2017-11-10T12:13:36.641Z,10.80
2017-11-10T12:16:04.959Z,10.90
2017-11-10T12:18:32.497Z,10.90
2017-11-10T12:21:00.077Z,10.90
2017-11-10T12:23:27.610Z,10.90
2017-11-10T12:25:55.925Z,11.00
2017-11-10T12:28:23.486Z,11.00
2017-11-10T12:30:51.026Z,11.00
2017-11-10T12:33:18.703Z,11.00
2017-11-10T12:35:46.232Z,11.00
2017-11-10T12:38:14.557Z,10.90
2017-11-10T12:40:42.846Z,10.90
2017-11-10T12:43:10.394Z,10.90
2017-11-10T12:45:37.928Z,10.90
2017-11-10T12:48:05.474Z,10.90
2017-11-10T12:50:33.774Z,10.90
2017-11-10T12:53:01.321Z,10.90
2017-11-10T12:55:28.857Z,10.90
2017-11-10T12:57:57.185Z,10.80
2017-11-10T13:00:24.722Z,10.80
2017-11-10T13:02:52.259Z,10.80
2017-11-10T13:05:20.557Z,10.70
2017-11-10T13:07:48.101Z,10.70
2017-11-10T13:10:15.634Z,10.70
2017-11-10T13:12:43.184Z,10.70
2017-11-10T13:15:10.710Z,10.70
2017-11-10T13:17:38.250Z,10.70
2017-11-10T13:20:06.562Z,10.70
2017-11-10T13:22:34.133Z,10.70
2017-11-10T13:25:01.654Z,10.60
2017-11-10T13:27:29.180Z,10.60
2017-11-10T13:29:56.733Z,10.60
2017-11-10T13:32:25.067Z,10.50
2017-11-10T13:34:52.618Z,10.50
2017-11-10T13:37:20.138Z,10.50
2017-11-10T13:39:47.699Z,10.50
2017-11-10T13:42:15.235Z,10.50
2017-11-10T13:44:42.774Z,10.50
2017-11-10T13:47:10.309Z,10.40
2017-11-10T13:49:38.630Z,10.40
2017-11-10T13:52:06.178Z,10.40
2017-11-10T13:54:33.719Z,10.40
2017-11-10T13:57:01.247Z,10.40
2017-11-10T13:59:28.820Z,10.30
2017-11-10T14:01:57.157Z,10.20
2017-11-10T14:04:24.713Z,10.20
2017-11-10T14:06:52.274Z,10.20
2017-11-10T14:09:19.805Z,10.10
2017-11-10T14:11:47.354Z,10.10
2017-11-10T14:14:14.897Z,10.10
2017-11-10T14:16:43.225Z,10.00
2017-11-10T14:19:10.817Z,10.00
2017-11-10T14:21:38.366Z,10.00
2017-11-10T14:24:05.899Z,10.00
2017-11-10T14:26:33.461Z,10.00
2017-11-10T14:29:01.204Z,9.90
2017-11-10T14:31:28.770Z,9.90
2017-11-10T14:33:56.297Z,9.80
2017-11-10T14:36:23.826Z,9.80
2017-11-10T14:38:51.390Z,9.80
2017-11-10T14:41:18.945Z,9.80
2017-11-10T14:43:46.516Z,9.70
2017-11-10T14:46:14.058Z,9.70
2017-11-10T14:48:41.619Z,9.70
2017-11-10T14:51:09.146Z,9.70
2017-11-10T14:53:36.705Z,9.70
2017-11-10T14:56:05.011Z,9.70
2017-11-10T14:58:32.577Z,9.60
2017-11-10T15:01:00.100Z,9.70
2017-11-10T15:03:28.434Z,9.60
2017-11-10T15:05:55.960Z,9.60
2017-11-10T15:08:23.486Z,9.60
2017-11-10T15:10:51.819Z,9.50
2017-11-10T15:13:19.341Z,9.50
2017-11-10T15:15:47.642Z,9.50
2017-11-10T15:18:15.183Z,9.50
2017-11-10T15:20:42.745Z,9.40
2017-11-10T15:23:10.295Z,9.40
2017-11-10T15:25:38.608Z,9.40
2017-11-10T15:28:06.138Z,9.40
2017-11-10T15:30:33.688Z,9.40
2017-11-10T15:33:01.227Z,9.30
2017-11-10T15:35:28.770Z,9.30
2017-11-10T15:37:56.291Z,9.30
2017-11-10T15:40:23.863Z,9.30
2017-11-10T15:42:51.378Z,9.20
2017-11-10T15:45:18.954Z,9.20
2017-11-10T15:47:46.493Z,9.20
2017-11-10T15:50:14.022Z,9.20
2017-11-10T15:52:41.564Z,9.20
2017-11-10T15:55:09.082Z,9.20
2017-11-10T15:57:36.631Z,9.20
2017-11-10T16:00:04.180Z,9.20
2017-11-10T16:02:31.736Z,9.20
2017-11-10T16:04:59.258Z,9.20
2017-11-10T16:07:26.811Z,9.10
2017-11-10T16:09:54.345Z,9.10
2017-11-10T16:12:21.901Z,9.10
2017-11-10T16:14:49.427Z,9.10
2017-11-10T16:17:16.980Z,9.00
2017-11-10T16:19:44.533Z,9.00
2017-11-10T16:22:12.097Z,9.00
2017-11-10T16:24:39.622Z,9.00
2017-11-10T16:27:07.940Z,9.00
2017-11-10T16:29:35.478Z,9.00
2017-11-10T16:32:03.033Z,9.00
2017-11-10T16:34:31.351Z,9.00
2017-11-10T16:36:58.893Z,8.90
2017-11-10T16:39:26.451Z,8.90
2017-11-10T16:41:53.994Z,8.90
2017-11-10T16:44:21.539Z,8.90
2017-11-10T16:46:49.843Z,8.90
2017-11-10T16:49:17.397Z,8.90
2017-11-10T16:51:44.950Z,8.90
2017-11-10T16:54:12.514Z,8.90
2017-11-10T16:56:40.041Z,8.90
2017-11-10T16:59:07.598Z,8.90
2017-11-10T17:01:35.119Z,8.90
2017-11-10T17:04:03.690Z,8.90
2017-11-10T17:06:31.212Z,8.90
2017-11-10T17:08:59.530Z,8.90
2017-11-10T17:11:27.114Z,8.80
2017-11-10T17:13:54.682Z,8.90
2017-11-10T17:16:22.277Z,8.90
2017-11-10T17:18:50.593Z,8.90
2017-11-10T17:21:18.132Z,8.80
2017-11-10T17:23:45.698Z,8.90
2017-11-10T17:26:13.234Z,8.90
2017-11-10T17:28:41.536Z,8.90
2017-11-10T17:31:09.114Z,8.90
2017-11-10T17:33:36.639Z,8.90
2017-11-10T17:36:04.953Z,8.90
2017-11-10T17:38:33.249Z,8.90
2017-11-10T17:41:00.801Z,8.90
2017-11-10T17:43:28.359Z,8.90
2017-11-10T17:45:55.900Z,8.90
2017-11-10T17:48:23.443Z,8.90
2017-11-10T17:50:51.781Z,8.90
2017-11-10T17:53:19.320Z,8.90
2017-11-10T17:55:46.846Z,8.90
2017-11-10T17:58:15.159Z,8.90
2017-11-10T18:00:42.709Z,8.80
2017-11-10T18:03:10.237Z,8.90
2017-11-10T18:05:38.552Z,8.80
2017-11-10T18:08:06.090Z,8.80
2017-11-10T18:10:33.634Z,8.80
2017-11-10T18:13:01.181Z,8.80
2017-11-10T18:15:28.741Z,8.80
2017-11-10T18:17:57.066Z,8.80
2017-11-10T18:20:24.606Z,8.80
2017-11-10T18:22:55.042Z,8.80
2017-11-10T18:25:22.609Z,8.80
2017-11-10T18:27:51.073Z,8.90
2017-11-10T18:30:18.600Z,8.80
2017-11-10T18:32:47.141Z,8.80
2017-11-10T18:35:14.666Z,8.80
2017-11-10T18:37:46.552Z,8.80
2017-11-10T18:40:14.123Z,8.80
2017-11-10T18:42:45.597Z,8.80
2017-11-10T18:45:13.457Z,8.80
2017-11-10T18:47:41.246Z,8.80
2017-11-10T18:50:08.780Z,8.80
2017-11-10T18:52:36.312Z,8.80
2017-11-10T18:55:03.862Z,8.80
2017-11-10T18:57:32.169Z,8.80
2017-11-10T18:59:59.704Z,8.80
2017-11-10T19:02:27.296Z,8.80
2017-11-10T19:04:54.839Z,8.80
2017-11-10T19:07:22.379Z,8.80
2017-11-10T19:09:50.695Z,8.80
2017-11-10T19:12:18.266Z,8.80
2017-11-10T19:14:45.785Z,8.80
2017-11-10T19:17:13.333Z,8.80
2017-11-10T19:19:40.865Z,8.90
2017-11-10T19:22:08.415Z,8.90
2017-11-10T19:24:35.930Z,8.90
2017-11-10T19:27:03.477Z,8.90
2017-11-10T19:29:31.822Z,8.90
2017-11-10T19:31:59.362Z,8.90
2017-11-10T19:34:26.918Z,8.90
2017-11-10T19:36:54.449Z,8.90
2017-11-10T19:39:22.031Z,8.90
2017-11-10T19:41:49.565Z,8.90
2017-11-10T19:44:17.137Z,8.90
2017-11-10T19:46:44.686Z,8.90
2017-11-10T19:49:12.993Z,8.90
2017-11-10T19:51:41.309Z,8.90
2017-11-10T19:54:08.899Z,8.90
2017-11-10T19:56:37.188Z,8.90
2017-11-10T19:59:05.504Z,8.90
2017-11-10T20:01:50.066Z,8.90
2017-11-10T20:04:17.605Z,8.90
2017-11-10T20:06:45.141Z,8.90
2017-11-10T20:09:13.475Z,8.90
2017-11-10T20:11:41.020Z,8.90
2017-11-10T20:14:09.598Z,8.90
2017-11-10T20:16:37.133Z,9.00
2017-11-10T20:19:04.695Z,9.00
2017-11-10T20:21:32.246Z,9.00
2017-11-10T20:23:59.814Z,9.00
2017-11-10T20:26:27.350Z,9.00
2017-11-10T20:28:54.897Z,9.00
2017-11-10T20:31:22.425Z,9.00
2017-11-10T20:33:49.963Z,9.00
2017-11-10T20:36:17.480Z,9.00
2017-11-10T20:38:45.030Z,9.00
2017-11-10T20:41:12.548Z,9.00
2017-11-10T20:43:40.099Z,9.00
2017-11-10T20:46:07.645Z,9.00
2017-11-10T20:48:35.957Z,9.00
2017-11-10T20:51:03.498Z,9.00
2017-11-10T20:53:31.071Z,9.00
2017-11-10T20:55:58.591Z,9.00
2017-11-10T20:58:26.131Z,9.00
2017-11-10T21:00:53.708Z,9.00
2017-11-10T21:03:21.269Z,9.00
2017-11-10T21:05:48.829Z,9.10
2017-11-10T21:08:16.416Z,9.10
2017-11-10T21:10:44.033Z,9.00
2017-11-10T21:13:11.608Z,9.00
2017-11-10T21:15:39.142Z,9.00
2017-11-10T21:18:06.668Z,9.00
2017-11-10T21:20:34.237Z,9.00
2017-11-10T21:23:01.761Z,9.00
2017-11-10T21:25:29.321Z,9.00
2017-11-10T21:27:56.918Z,8.90
2017-11-10T21:30:24.488Z,8.90
2017-11-10T21:32:52.038Z,8.90
2017-11-10T21:35:19.600Z,9.00
2017-11-10T21:37:47.123Z,9.00
2017-11-10T21:40:14.667Z,9.00
2017-11-10T21:42:42.196Z,9.00
2017-11-10T21:45:10.519Z,9.00
2017-11-10T21:47:38.046Z,9.00
2017-11-10T21:50:05.598Z,9.00
2017-11-10T21:52:33.135Z,9.00
2017-11-10T21:55:00.706Z,9.00
2017-11-10T21:57:28.225Z,9.00
2017-11-10T21:59:55.774Z,9.00
2017-11-10T22:02:23.341Z,9.10
2017-11-10T22:04:50.874Z,9.10
2017-11-10T22:07:18.450Z,9.10
2017-11-10T22:09:51.510Z,9.10
2017-11-10T22:12:19.035Z,9.10
2017-11-10T22:14:47.370Z,9.10
2017-11-10T22:17:14.886Z,9.10
2017-11-10T22:19:42.422Z,9.10
2017-11-10T22:22:09.953Z,9.10
2017-11-10T22:24:37.489Z,9.10
2017-11-10T22:27:05.007Z,9.10
2017-11-10T22:29:33.332Z,9.10
2017-11-10T22:32:00.860Z,9.10
2017-11-10T22:34:28.433Z,9.10
2017-11-10T22:36:55.953Z,9.10
2017-11-10T22:39:23.491Z,9.10
2017-11-10T22:41:51.041Z,9.10
2017-11-10T22:44:18.573Z,9.10
2017-11-10T22:46:46.101Z,9.10
2017-11-10T22:49:13.642Z,9.10
2017-11-10T22:51:41.177Z,9.10
2017-11-10T22:54:08.790Z,9.10
2017-11-10T22:56:37.081Z,9.10
2017-11-10T22:59:05.415Z,9.10
2017-11-10T23:01:32.945Z,9.10
2017-11-10T23:04:00.510Z,9.10
2017-11-10T23:06:28.029Z,9.20
2017-11-10T23:08:56.326Z,9.20
2017-11-10T23:11:23.861Z,9.20
2017-11-10T23:13:51.377Z,9.20
2017-11-10T23:16:18.909Z,9.20
2017-11-10T23:18:46.452Z,9.20
2017-11-10T23:21:14.751Z,9.20
2017-11-10T23:23:42.270Z,9.10
2017-11-10T23:26:09.808Z,9.20
2017-11-10T23:28:37.354Z,9.20
2017-11-10T23:31:04.884Z,9.20
2017-11-10T23:33:32.409Z,9.10
2017-11-10T23:35:59.955Z,9.10
2017-11-10T23:38:27.473Z,9.20
2017-11-10T23:40:55.020Z,9.20
2017-11-10T23:43:22.555Z,9.20
2017-11-10T23:45:50.097Z,9.20
2017-11-10T23:48:17.638Z,9.20
2017-11-10T23:50:45.175Z,9.20
2017-11-10T23:53:12.725Z,9.20
2017-11-10T23:55:40.246Z,9.20
2017-11-10T23:58:07.778Z,9.20
